createdAt,value
2023-03-29T00:00:08.224Z,7.53
2023-03-29T00:02:35.401Z,7.53
2023-03-29T00:05:04.024Z,7.54
2023-03-29T00:07:33.568Z,7.54
2023-03-29T00:10:02.583Z,7.53
2023-03-29T00:12:30.026Z,7.48
2023-03-29T00:14:57.503Z,7.49
2023-03-29T00:17:25.957Z,7.50
2023-03-29T00:19:52.978Z,7.50
2023-03-29T00:22:20.051Z,7.51
2023-03-29T00:24:49.030Z,7.51
2023-03-29T00:27:16.904Z,7.49
2023-03-29T00:29:44.359Z,7.49
2023-03-29T00:32:12.160Z,7.49
2023-03-29T00:34:42.729Z,7.49
2023-03-29T00:37:10.173Z,7.51
2023-03-29T00:39:37.517Z,7.50
2023-03-29T00:42:04.692Z,7.50
2023-03-29T00:45:19.164Z,7.50
2023-03-29T00:47:50.712Z,7.51
2023-03-29T00:50:42.642Z,7.53
2023-03-29T00:53:30.298Z,7.53
2023-03-29T00:56:12.349Z,7.55
2023-03-29T00:58:56.559Z,7.60
2023-03-29T01:01:38.264Z,7.65
2023-03-29T01:05:06.122Z,7.66
2023-03-29T01:07:53.712Z,7.65
2023-03-29T01:10:34.712Z,7.65
2023-03-29T01:13:09.643Z,7.67
2023-03-29T01:15:41.078Z,7.68
2023-03-29T01:18:09.292Z,7.71
2023-03-29T01:21:16.473Z,7.74
2023-03-29T01:23:53.884Z,7.74
2023-03-29T01:26:55.237Z,7.79
2023-03-29T01:29:36.603Z,7.81
2023-03-29T01:32:42.334Z,7.86
2023-03-29T01:35:42.559Z,7.89
2023-03-29T01:38:21.579Z,7.89
2023-03-29T01:40:48.664Z,7.92
2023-03-29T01:43:31.545Z,7.95
2023-03-29T01:46:05.300Z,7.98
2023-03-29T01:48:45.287Z,7.98
2023-03-29T01:51:36.159Z,8.01
2023-03-29T01:54:34.578Z,8.04
2023-03-29T01:57:04.846Z,8.04
2023-03-29T01:59:36.156Z,8.03
2023-03-29T02:02:05.931Z,8.05
2023-03-29T02:04:38.450Z,8.07
2023-03-29T02:07:08.906Z,8.10
2023-03-29T02:09:38.791Z,8.10
2023-03-29T02:12:08.604Z,8.12
2023-03-29T02:14:35.734Z,8.10
2023-03-29T02:17:23.756Z,8.10
2023-03-29T02:20:14.838Z,8.10
2023-03-29T02:22:52.314Z,8.09
2023-03-29T02:25:19.970Z,8.11
2023-03-29T02:27:47.091Z,8.12
2023-03-29T02:30:17.498Z,8.14
2023-03-29T02:33:23.978Z,8.16
2023-03-29T02:36:10.290Z,8.18
2023-03-29T02:38:39.096Z,8.21
2023-03-29T02:41:07.967Z,8.23
2023-03-29T02:43:37.922Z,8.21
2023-03-29T02:46:07.849Z,8.19
2023-03-29T02:48:37.340Z,8.18
2023-03-29T02:51:20.285Z,8.18
2023-03-29T02:54:04.866Z,8.21
2023-03-29T02:56:56.519Z,8.20
2023-03-29T02:59:24.300Z,8.23
2023-03-29T03:01:55.205Z,8.24
2023-03-29T03:04:22.803Z,8.24
2023-03-29T03:06:49.882Z,8.24
2023-03-29T03:09:17.309Z,8.23
2023-03-29T03:11:44.723Z,8.25
2023-03-29T03:14:12.491Z,8.28
2023-03-29T03:16:39.503Z,8.28
2023-03-29T03:19:07.005Z,8.29
2023-03-29T03:21:35.159Z,8.30
2023-03-29T03:24:02.188Z,8.31
2023-03-29T03:26:30.089Z,8.30
2023-03-29T03:28:58.425Z,8.32
2023-03-29T03:31:25.703Z,8.31
2023-03-29T03:33:53.421Z,8.33
2023-03-29T03:36:26.154Z,8.32
2023-03-29T03:38:53.781Z,8.33
2023-03-29T03:41:20.778Z,8.33
2023-03-29T03:43:48.996Z,8.33
2023-03-29T03:46:17.222Z,8.35
2023-03-29T03:48:46.087Z,8.37
2023-03-29T03:51:13.186Z,8.37
2023-03-29T03:53:40.878Z,8.37
2023-03-29T03:56:11.490Z,8.38
2023-03-29T03:58:38.568Z,8.38
2023-03-29T04:01:08.476Z,8.38
2023-03-29T04:03:36.177Z,8.38
2023-03-29T04:06:04.425Z,8.38
2023-03-29T04:08:32.024Z,8.37
2023-03-29T04:11:00.374Z,8.34
2023-03-29T04:13:28.015Z,8.33
2023-03-29T04:15:58.800Z,8.32
2023-03-29T04:18:27.669Z,8.34
2023-03-29T04:20:54.874Z,8.34
2023-03-29T04:23:21.990Z,8.34
2023-03-29T04:25:49.267Z,8.36
2023-03-29T04:28:16.487Z,8.37
2023-03-29T04:30:45.304Z,8.38
2023-03-29T04:33:12.403Z,8.40
2023-03-29T04:35:40.073Z,8.44
2023-03-29T04:38:10.273Z,8.46
2023-03-29T04:40:38.404Z,8.48
2023-03-29T04:43:06.338Z,8.48
2023-03-29T04:45:33.399Z,8.49
2023-03-29T04:48:00.545Z,8.48
2023-03-29T04:50:28.106Z,8.50
2023-03-29T04:52:55.138Z,8.54
2023-03-29T04:55:22.393Z,8.54
2023-03-29T04:57:49.431Z,8.57
2023-03-29T05:00:17.180Z,8.58
2023-03-29T05:02:44.972Z,8.58
2023-03-29T05:05:13.903Z,8.61
2023-03-29T05:07:41.144Z,8.62
2023-03-29T05:10:09.489Z,8.64
2023-03-29T05:12:37.079Z,8.66
2023-03-29T05:15:08.291Z,8.68
2023-03-29T05:17:35.562Z,8.68
2023-03-29T05:20:09.149Z,8.70
2023-03-29T05:22:36.628Z,8.71
2023-03-29T05:25:05.005Z,8.72
2023-03-29T05:27:32.026Z,8.74
2023-03-29T05:29:59.587Z,8.74
2023-03-29T05:32:27.207Z,8.77
2023-03-29T05:34:54.208Z,8.78
2023-03-29T05:37:21.556Z,8.80
2023-03-29T05:39:50.482Z,8.84
2023-03-29T05:42:22.266Z,8.86
2023-03-29T05:44:49.381Z,8.89
2023-03-29T05:47:16.511Z,8.92
2023-03-29T05:49:43.499Z,8.95
2023-03-29T05:52:10.663Z,8.97
2023-03-29T05:54:37.671Z,9.00
2023-03-29T05:57:04.824Z,9.03
2023-03-29T05:59:32.469Z,9.07
2023-03-29T06:02:05.048Z,9.14
2023-03-29T06:04:33.725Z,9.19
2023-03-29T06:07:02.195Z,9.25
2023-03-29T06:09:29.399Z,9.32
2023-03-29T06:11:57.738Z,9.36
2023-03-29T06:14:24.998Z,9.44
2023-03-29T06:16:52.221Z,9.48
2023-03-29T06:19:19.686Z,9.50
2023-03-29T06:21:47.350Z,9.55
2023-03-29T06:24:14.518Z,9.60
2023-03-29T06:26:42.153Z,9.63
2023-03-29T06:29:09.243Z,9.64
2023-03-29T06:31:36.730Z,9.66
2023-03-29T06:34:04.852Z,9.71
2023-03-29T06:36:34.575Z,9.75
2023-03-29T06:39:04.029Z,9.80
2023-03-29T06:41:31.744Z,9.87
2023-03-29T06:43:58.996Z,10.00
2023-03-29T06:46:26.369Z,10.12
2023-03-29T06:48:53.637Z,10.24
2023-03-29T06:51:23.102Z,10.33
2023-03-29T06:53:50.478Z,10.43
2023-03-29T06:56:17.657Z,10.56
2023-03-29T06:58:45.283Z,10.73
2023-03-29T07:01:12.752Z,10.84
2023-03-29T07:03:41.236Z,10.92
2023-03-29T07:06:12.268Z,10.99
2023-03-29T07:08:43.850Z,11.07
2023-03-29T07:11:13.303Z,11.05
2023-03-29T07:13:44.059Z,11.03
2023-03-29T07:16:13.111Z,11.10
2023-03-29T07:18:42.873Z,11.17
2023-03-29T07:21:12.547Z,11.24
2023-03-29T07:23:40.698Z,11.31
2023-03-29T07:26:08.150Z,11.35
2023-03-29T07:28:37.479Z,11.37
2023-03-29T07:31:11.395Z,11.39
2023-03-29T07:33:39.483Z,11.39
2023-03-29T07:36:07.406Z,11.35
2023-03-29T07:38:34.501Z,11.37
2023-03-29T07:41:08.200Z,11.40
2023-03-29T07:43:35.588Z,11.40
2023-03-29T07:46:06.812Z,11.46
2023-03-29T07:48:34.032Z,11.41
2023-03-29T07:51:01.617Z,11.37
2023-03-29T07:53:32.347Z,11.33
2023-03-29T07:55:59.579Z,11.29
2023-03-29T07:58:26.594Z,11.34
2023-03-29T08:00:53.780Z,11.48
2023-03-29T08:03:21.252Z,11.65
2023-03-29T08:05:48.726Z,11.72
2023-03-29T08:08:15.776Z,11.73
2023-03-29T08:10:42.939Z,11.72
2023-03-29T08:13:10.908Z,11.74
2023-03-29T08:15:40.984Z,11.74
2023-03-29T08:18:08.611Z,11.71
2023-03-29T08:20:35.732Z,11.74
2023-03-29T08:23:03.154Z,11.73
2023-03-29T08:25:30.346Z,11.77
2023-03-29T08:27:57.911Z,11.73
2023-03-29T08:30:25.832Z,11.69
2023-03-29T08:32:55.395Z,11.76
2023-03-29T08:35:22.955Z,11.86
2023-03-29T08:37:50.118Z,11.91
2023-03-29T08:40:23.341Z,11.91
2023-03-29T08:43:02.162Z,12.08
2023-03-29T08:45:50.895Z,12.21
2023-03-29T08:48:48.402Z,12.53
2023-03-29T08:51:27.933Z,12.55
2023-03-29T08:54:33.937Z,12.53
2023-03-29T08:57:31.034Z,12.62
2023-03-29T09:00:02.031Z,12.96
2023-03-29T09:02:34.772Z,13.10
2023-03-29T09:05:34.503Z,13.32
2023-03-29T09:08:01.914Z,13.69
2023-03-29T09:10:43.239Z,14.14
2023-03-29T09:13:30.424Z,14.23
2023-03-29T09:16:09.677Z,14.62
2023-03-29T09:19:02.019Z,14.63
2023-03-29T09:22:12.070Z,14.62
2023-03-29T09:25:00.682Z,14.58
2023-03-29T09:27:33.283Z,14.49
2023-03-29T09:30:29.660Z,14.18
2023-03-29T09:33:42.981Z,14.19
2023-03-29T09:36:42.562Z,13.95
2023-03-29T09:39:14.846Z,13.68
2023-03-29T09:42:04.460Z,13.69
2023-03-29T09:44:44.284Z,13.79
2023-03-29T09:47:35.235Z,13.69
2023-03-29T09:50:32.949Z,13.64
2023-03-29T09:53:00.240Z,13.57
2023-03-29T09:55:32.377Z,13.69
2023-03-29T09:58:02.642Z,13.89
2023-03-29T10:00:30.370Z,14.05
2023-03-29T10:03:00.551Z,14.10
2023-03-29T10:05:32.844Z,14.31
2023-03-29T10:08:01.543Z,14.37
2023-03-29T10:10:33.719Z,14.54
2023-03-29T10:13:06.999Z,14.62
2023-03-29T10:15:34.212Z,14.84
2023-03-29T10:18:07.471Z,15.18
2023-03-29T10:20:40.215Z,15.49
2023-03-29T10:23:10.469Z,15.81
2023-03-29T10:25:42.983Z,15.88
2023-03-29T10:28:18.702Z,15.91
2023-03-29T10:30:54.918Z,15.82
2023-03-29T10:33:32.184Z,15.83
2023-03-29T10:36:01.022Z,15.92
2023-03-29T10:38:30.274Z,16.07
2023-03-29T10:41:12.590Z,16.18
2023-03-29T10:43:46.632Z,16.27
2023-03-29T10:46:29.940Z,16.44
2023-03-29T10:49:10.514Z,16.56
2023-03-29T10:51:37.560Z,16.54
2023-03-29T10:54:06.825Z,16.60
2023-03-29T10:56:43.527Z,16.76
2023-03-29T10:59:31.552Z,16.78
2023-03-29T11:02:13.609Z,16.92
2023-03-29T11:05:05.989Z,17.15
2023-03-29T11:08:31.774Z,17.44
2023-03-29T11:11:30.145Z,17.84
2023-03-29T11:14:41.281Z,17.85
2023-03-29T11:17:29.377Z,17.71
2023-03-29T11:20:05.970Z,17.50
2023-03-29T11:23:13.349Z,17.48
2023-03-29T11:26:01.555Z,17.47
2023-03-29T11:29:02.707Z,17.59
2023-03-29T11:31:54.750Z,17.63
2023-03-29T11:34:42.652Z,17.77
2023-03-29T11:37:54.160Z,17.95
2023-03-29T11:40:51.551Z,18.08
2023-03-29T11:43:40.600Z,18.08
2023-03-29T11:46:32.837Z,18.08
2023-03-29T11:49:10.200Z,18.16
2023-03-29T11:51:46.305Z,18.23
2023-03-29T11:55:02.838Z,18.35
2023-03-29T11:57:39.878Z,18.48
2023-03-29T12:00:26.572Z,18.57
2023-03-29T12:03:14.247Z,18.75
2023-03-29T12:06:00.162Z,18.86
2023-03-29T12:08:58.667Z,18.96
2023-03-29T12:11:53.019Z,19.12
2023-03-29T12:15:04.765Z,19.32
2023-03-29T12:17:45.747Z,19.48
2023-03-29T12:20:27.626Z,19.62
2023-03-29T12:22:55.710Z,19.67
2023-03-29T12:25:43.725Z,19.73
2023-03-29T12:28:18.186Z,19.90
2023-03-29T12:30:58.860Z,20.08
2023-03-29T12:33:53.889Z,20.08
2023-03-29T12:37:01.930Z,19.93
2023-03-29T12:39:31.536Z,19.80
2023-03-29T12:42:21.705Z,19.68
2023-03-29T12:45:00.620Z,19.58
2023-03-29T12:47:39.721Z,19.60
2023-03-29T12:50:17.166Z,19.68
2023-03-29T12:52:44.266Z,19.81
2023-03-29T12:55:30.167Z,20.00
2023-03-29T12:58:42.975Z,20.05
2023-03-29T13:01:38.400Z,20.04
2023-03-29T13:04:20.827Z,20.12
2023-03-29T13:06:47.840Z,20.24
2023-03-29T13:09:29.830Z,20.24
2023-03-29T13:12:16.804Z,20.28
2023-03-29T13:14:50.258Z,20.36
2023-03-29T13:17:34.284Z,20.43
2023-03-29T13:21:17.735Z,20.53
2023-03-29T13:24:23.241Z,20.57
2023-03-29T13:26:55.965Z,20.56
2023-03-29T13:29:47.834Z,20.55
2023-03-29T13:32:50.057Z,20.49
2023-03-29T13:35:49.552Z,20.44
2023-03-29T13:38:27.761Z,20.49
2023-03-29T13:40:58.081Z,20.53
2023-03-29T13:43:35.815Z,20.56
2023-03-29T13:46:06.885Z,20.58
2023-03-29T13:48:59.214Z,20.59
2023-03-29T13:51:39.973Z,20.55
2023-03-29T13:54:30.796Z,20.62
2023-03-29T13:57:17.230Z,20.76
2023-03-29T14:00:20.381Z,20.91
2023-03-29T14:02:58.101Z,20.96
2023-03-29T14:05:34.546Z,20.94
2023-03-29T14:08:30.541Z,20.82
2023-03-29T14:11:02.301Z,20.73
2023-03-29T14:13:29.988Z,20.61
2023-03-29T14:16:02.956Z,20.39
2023-03-29T14:18:40.535Z,20.12
2023-03-29T14:21:08.568Z,19.87
2023-03-29T14:23:38.542Z,19.73
2023-03-29T14:26:13.627Z,19.67
2023-03-29T14:28:52.771Z,19.63
2023-03-29T14:31:25.874Z,19.56
2023-03-29T14:33:58.588Z,19.53
2023-03-29T14:36:27.808Z,19.59
2023-03-29T14:39:04.190Z,19.75
2023-03-29T14:41:33.754Z,19.81
2023-03-29T14:44:03.082Z,19.80
2023-03-29T14:46:31.632Z,19.85
2023-03-29T14:49:00.098Z,20.02
2023-03-29T14:51:30.649Z,20.16
2023-03-29T14:54:00.319Z,20.27
2023-03-29T14:56:28.208Z,20.35
2023-03-29T14:58:57.571Z,20.42
2023-03-29T15:01:26.835Z,20.43
2023-03-29T15:03:57.812Z,20.49
2023-03-29T15:06:26.406Z,20.60
2023-03-29T15:09:04.131Z,20.66
2023-03-29T15:11:34.145Z,20.57
2023-03-29T15:14:08.736Z,20.38
2023-03-29T15:16:41.207Z,20.28
2023-03-29T15:19:17.244Z,20.19
2023-03-29T15:21:47.815Z,19.95
2023-03-29T15:24:23.015Z,19.79
2023-03-29T15:27:05.546Z,19.72
2023-03-29T15:29:42.469Z,19.56
2023-03-29T15:32:35.154Z,19.29
2023-03-29T15:35:27.459Z,19.07
2023-03-29T15:37:54.562Z,18.96
2023-03-29T15:40:28.177Z,18.90
2023-03-29T15:42:56.581Z,18.81
2023-03-29T15:45:23.798Z,18.77
2023-03-29T15:47:51.688Z,18.76
2023-03-29T15:50:19.384Z,18.72
2023-03-29T15:52:46.466Z,18.67
2023-03-29T15:55:13.574Z,18.64
2023-03-29T15:57:46.479Z,18.59
2023-03-29T16:00:16.559Z,18.53
2023-03-29T16:02:44.102Z,18.49
2023-03-29T16:05:13.127Z,18.41
2023-03-29T16:07:40.364Z,18.38
2023-03-29T16:10:09.177Z,18.33
2023-03-29T16:12:38.463Z,18.31
2023-03-29T16:15:19.673Z,18.32
2023-03-29T16:17:47.338Z,18.37
2023-03-29T16:20:20.335Z,18.43
2023-03-29T16:22:48.385Z,18.50
2023-03-29T16:25:22.649Z,18.53
2023-03-29T16:27:51.142Z,18.53
2023-03-29T16:30:19.215Z,18.52
2023-03-29T16:32:46.517Z,18.51
2023-03-29T16:35:31.301Z,18.48
2023-03-29T16:38:02.839Z,18.41
2023-03-29T16:40:30.169Z,18.34
2023-03-29T16:42:57.484Z,18.31
2023-03-29T16:45:24.660Z,18.20
2023-03-29T16:47:51.891Z,18.12
2023-03-29T16:50:21.828Z,18.05
2023-03-29T16:52:51.410Z,17.97
2023-03-29T16:55:19.123Z,17.90
2023-03-29T16:57:48.010Z,17.84
2023-03-29T17:00:20.277Z,17.82
2023-03-29T17:02:50.999Z,17.79
2023-03-29T17:05:19.252Z,17.75
2023-03-29T17:07:46.976Z,17.70
2023-03-29T17:10:14.985Z,17.66
2023-03-29T17:12:42.073Z,17.59
2023-03-29T17:15:09.980Z,17.50
2023-03-29T17:17:37.932Z,17.42
2023-03-29T17:20:08.629Z,17.35
2023-03-29T17:22:36.239Z,17.31
2023-03-29T17:25:07.077Z,17.24
2023-03-29T17:27:36.291Z,17.18
2023-03-29T17:30:07.355Z,17.11
2023-03-29T17:32:36.409Z,17.06
2023-03-29T17:35:04.013Z,17.01
2023-03-29T17:37:31.127Z,16.92
2023-03-29T17:39:58.151Z,16.84
2023-03-29T17:42:25.599Z,16.78
2023-03-29T17:44:52.723Z,16.71
2023-03-29T17:47:19.694Z,16.64
2023-03-29T17:49:46.749Z,16.59
2023-03-29T17:52:13.847Z,16.52
2023-03-29T17:54:40.958Z,16.48
2023-03-29T17:57:08.010Z,16.44
2023-03-29T17:59:36.943Z,16.38
2023-03-29T18:02:08.361Z,16.35
2023-03-29T18:04:35.939Z,16.30
2023-03-29T18:07:02.969Z,16.24
2023-03-29T18:09:31.002Z,16.19
2023-03-29T18:11:58.166Z,16.15
2023-03-29T18:14:25.417Z,16.11
2023-03-29T18:16:52.689Z,16.06
2023-03-29T18:19:19.939Z,16.03
2023-03-29T18:21:47.265Z,15.97
2023-03-29T18:24:15.840Z,15.90
2023-03-29T18:26:42.897Z,15.88
2023-03-29T18:29:10.033Z,15.85
2023-03-29T18:31:37.472Z,15.81
2023-03-29T18:34:04.614Z,15.79
2023-03-29T18:36:32.343Z,15.76
2023-03-29T18:39:05.801Z,15.74
2023-03-29T18:41:35.708Z,15.71
2023-03-29T18:44:03.445Z,15.68
2023-03-29T18:46:31.804Z,15.63
2023-03-29T18:49:01.178Z,15.60
2023-03-29T18:51:28.691Z,15.58
2023-03-29T18:53:56.634Z,15.55
2023-03-29T18:56:23.882Z,15.54
2023-03-29T18:58:51.581Z,15.51
2023-03-29T19:01:18.707Z,15.43
2023-03-29T19:03:46.260Z,15.40
2023-03-29T19:06:14.561Z,15.35
2023-03-29T19:08:42.186Z,15.31
2023-03-29T19:11:14.407Z,15.27
2023-03-29T19:13:42.527Z,15.25
2023-03-29T19:16:09.644Z,15.20
2023-03-29T19:18:37.081Z,15.17
2023-03-29T19:21:04.315Z,15.14
2023-03-29T19:23:31.593Z,15.12
2023-03-29T19:26:02.763Z,15.12
2023-03-29T19:28:30.600Z,15.09
2023-03-29T19:31:00.725Z,15.06
2023-03-29T19:33:29.221Z,15.02
2023-03-29T19:35:56.897Z,15.01
2023-03-29T19:38:24.034Z,15.02
2023-03-29T19:40:52.445Z,14.98
2023-03-29T19:43:20.953Z,14.93
2023-03-29T19:45:50.509Z,14.92
2023-03-29T19:48:23.479Z,14.92
2023-03-29T19:50:51.480Z,14.90
2023-03-29T19:53:18.734Z,14.90
2023-03-29T19:55:46.208Z,14.88
2023-03-29T19:58:13.361Z,14.87
2023-03-29T20:00:41.864Z,14.82
2023-03-29T20:03:09.957Z,14.82
2023-03-29T20:05:38.928Z,14.83
2023-03-29T20:08:07.424Z,14.80
2023-03-29T20:10:36.264Z,14.77
2023-03-29T20:13:06.098Z,14.75
2023-03-29T20:15:33.171Z,14.75
2023-03-29T20:18:00.381Z,14.75
2023-03-29T20:20:28.444Z,14.74
2023-03-29T20:23:04.717Z,14.73
2023-03-29T20:25:36.294Z,14.71
2023-03-29T20:28:04.772Z,14.68
2023-03-29T20:30:31.996Z,14.64
2023-03-29T20:32:59.090Z,14.63
2023-03-29T20:35:26.179Z,14.61
2023-03-29T20:37:53.245Z,14.59
2023-03-29T20:40:21.195Z,14.55
2023-03-29T20:42:48.987Z,14.52
2023-03-29T20:45:19.033Z,14.51
2023-03-29T20:47:57.946Z,14.46
2023-03-29T20:50:26.501Z,14.45
2023-03-29T20:52:54.965Z,14.45
2023-03-29T20:55:23.608Z,14.44
2023-03-29T20:57:57.944Z,14.44
2023-03-29T21:00:27.395Z,14.45
2023-03-29T21:03:00.589Z,14.43
2023-03-29T21:05:30.306Z,14.41
2023-03-29T21:07:57.478Z,14.37
2023-03-29T21:10:26.122Z,14.36
2023-03-29T21:13:00.508Z,14.35
2023-03-29T21:15:30.809Z,14.38
2023-03-29T21:17:58.268Z,14.40
2023-03-29T21:20:25.709Z,14.41
2023-03-29T21:22:53.049Z,14.42
2023-03-29T21:25:20.155Z,14.41
2023-03-29T21:27:47.422Z,14.41
2023-03-29T21:30:14.914Z,14.39
2023-03-29T21:32:41.995Z,14.36
2023-03-29T21:35:10.076Z,14.36
2023-03-29T21:37:37.505Z,14.36
2023-03-29T21:40:07.046Z,14.38
2023-03-29T21:42:34.860Z,14.36
2023-03-29T21:45:02.355Z,14.35
2023-03-29T21:47:29.703Z,14.33
2023-03-29T21:49:56.791Z,14.32
2023-03-29T21:52:23.933Z,14.32
2023-03-29T21:54:50.979Z,14.32
2023-03-29T21:57:18.177Z,14.31
2023-03-29T21:59:45.371Z,14.28
2023-03-29T22:02:12.450Z,14.27
2023-03-29T22:04:39.625Z,14.28
2023-03-29T22:07:08.375Z,14.32
2023-03-29T22:09:35.592Z,14.32
2023-03-29T22:12:04.801Z,14.27
2023-03-29T22:14:36.276Z,14.29
2023-03-29T22:17:09.171Z,14.26
2023-03-29T22:19:40.208Z,14.26
2023-03-29T22:22:13.521Z,14.23
2023-03-29T22:24:42.164Z,14.20
2023-03-29T22:27:10.646Z,14.17
2023-03-29T22:29:37.912Z,14.14
2023-03-29T22:32:06.055Z,14.14
2023-03-29T22:34:33.600Z,14.13
2023-03-29T22:37:00.709Z,14.12
2023-03-29T22:39:28.556Z,14.09
2023-03-29T22:41:55.981Z,14.11
2023-03-29T22:44:23.069Z,14.13
2023-03-29T22:46:50.546Z,14.10
2023-03-29T22:49:17.632Z,14.09
2023-03-29T22:51:44.727Z,14.08
2023-03-29T22:54:12.275Z,14.10
2023-03-29T22:56:39.370Z,14.09
2023-03-29T22:59:06.520Z,14.10
2023-03-29T23:01:33.781Z,14.10
2023-03-29T23:04:00.984Z,14.11
2023-03-29T23:06:28.121Z,14.12
2023-03-29T23:08:55.201Z,14.12
2023-03-29T23:11:22.868Z,14.09
2023-03-29T23:13:50.082Z,14.11
2023-03-29T23:16:17.246Z,14.09
2023-03-29T23:18:44.368Z,14.08
2023-03-29T23:21:11.916Z,14.06
2023-03-29T23:23:39.399Z,14.05
2023-03-29T23:26:11.201Z,14.09
2023-03-29T23:28:38.251Z,14.08
2023-03-29T23:31:12.276Z,14.06
2023-03-29T23:33:42.797Z,14.05
2023-03-29T23:36:19.592Z,14.05
2023-03-29T23:38:47.815Z,14.09
2023-03-29T23:41:16.758Z,14.16
2023-03-29T23:43:46.998Z,14.21
2023-03-29T23:46:17.032Z,14.25
2023-03-29T23:48:49.046Z,14.28
2023-03-29T23:51:23.246Z,14.31
2023-03-29T23:53:51.199Z,14.32
2023-03-29T23:56:18.235Z,14.34
2023-03-29T23:58:45.796Z,14.35
